Flight Information

DEPARTURE
SAN JOSE, CA
Elevation:
62
Runways:
12L/30R - 11000x150 - CONC-G
12R/30L - 11000x150 - CONC-G
Active PE Departure:
30L - 30R
Current PE ATIS:
K
Altimeter:
30.01
Remarks:
V F R DEPARTURES CONTACT CLEARANCE DELIVERY, ADVISE ON COURSE HEADING, ALTITUDE, AND IF FLIGHT FOLLOWING IS REQUESTED.
ATIS:
126.95 408-980-8459
Clearance Delivery:
118
Ground:
121.7
Tower:
SAN JOSE TOWER 124.0
DESTINATION
,
Elevation:
TPA:
1000 (est.)


6891.1 NM69° True-15° Var54° HDG

Flight Plan:
(click to file on line)

1. Type
2. Aircraft Identification
3. Aircraft Type / Special Equipment
4. True Airspeed
kts
5. Departure Airport
(ICAO code)
6. Arriving Airport
(ICAO code)
7. Cruising Altitude
ft
8. Alternate Airport
(ICAO code)
9. Route of Flight
10. Remarks


00:00:00 Departure ATIS: Destination ATIS:

Clearance Limit:
Route:
Altitude: Expect in minutes
Frequency:
Transponder: (7500 Hijack / 7600 Lost Comms / 7700 Emergency)


KSJC 101553Z 00000KT 10SM FEW070 SCT090 SCT130 21/13 A3001 RMK AO2 SLP162 T02060133 $
Time: 2020-07-10T15:53:00Z
1594398675
Winds: calm
Visibility: 10.0 sm
Clouds (AGL): FEW 7000
SCT 9000
SCT 13000
Temperature: 20.6 C
Dew Point: 13.3 C
Pressure: 30.008858 in Hgbr


Notes:

Data extracted from FAA Digital Chart Supplement. Effective: 0901Z Thursday, May 21, 2020 to 0901Z Thursday, Jul 16, 2020
Current ATIS data is provided courtisy of PilotEdge.